createdAt,value
2024-03-01T00:00:17.878Z,57.20
2024-03-01T00:02:47.284Z,57.30
2024-03-01T00:05:16.005Z,57.20
2024-03-01T00:07:44.780Z,57.10
2024-03-01T00:10:14.285Z,57.00
2024-03-01T00:12:43.755Z,57.10
2024-03-01T00:15:12.723Z,57.00
2024-03-01T00:17:41.748Z,57.00
2024-03-01T00:20:10.589Z,56.90
2024-03-01T00:22:39.879Z,56.70
2024-03-01T00:25:09.243Z,56.50
2024-03-01T00:27:38.596Z,56.80
2024-03-01T00:30:07.915Z,56.70
2024-03-01T00:32:37.047Z,56.60
2024-03-01T00:35:05.290Z,56.70
2024-03-01T00:37:34.303Z,56.70
2024-03-01T00:40:02.574Z,56.70
2024-03-01T00:42:32.067Z,56.30
2024-03-01T00:45:01.385Z,56.50
2024-03-01T00:47:30.534Z,56.50
2024-03-01T00:49:59.753Z,56.50
2024-03-01T00:52:28.489Z,56.40
2024-03-01T00:54:57.858Z,56.40
2024-03-01T00:57:27.988Z,56.20
2024-03-01T00:59:57.471Z,56.30
2024-03-01T01:02:39.724Z,56.40
2024-03-01T01:05:10.780Z,56.40
2024-03-01T01:07:39.642Z,56.30
2024-03-01T01:10:09.103Z,56.30
2024-03-01T01:12:38.503Z,56.20
2024-03-01T01:15:09.541Z,56.20
2024-03-01T01:17:41.046Z,56.20
2024-03-01T01:20:10.485Z,56.20
2024-03-01T01:22:39.848Z,56.20
2024-03-01T01:25:09.360Z,56.10
2024-03-01T01:27:38.580Z,56.10
2024-03-01T01:30:07.018Z,56.20
2024-03-01T01:32:36.074Z,56.10
2024-03-01T01:35:05.473Z,56.10
2024-03-01T01:37:34.422Z,56.10
2024-03-01T01:40:03.970Z,56.10
2024-03-01T01:42:33.438Z,56.10
2024-03-01T01:45:02.880Z,56.00
2024-03-01T01:47:32.275Z,56.00
2024-03-01T01:50:01.730Z,56.00
2024-03-01T01:52:31.127Z,56.00
2024-03-01T01:55:00.588Z,55.80
2024-03-01T01:57:30.143Z,55.80
2024-03-01T01:59:59.211Z,55.80
2024-03-01T02:02:29.770Z,55.80
2024-03-01T02:04:59.159Z,55.80
2024-03-01T02:07:28.190Z,55.80
2024-03-01T02:09:57.361Z,55.70
2024-03-01T02:12:26.221Z,55.80
2024-03-01T02:14:55.654Z,55.80
2024-03-01T02:17:25.022Z,55.80
2024-03-01T02:19:54.287Z,55.80
2024-03-01T02:22:23.110Z,55.80
2024-03-01T02:24:52.680Z,56.40
2024-03-01T02:27:21.927Z,55.60
2024-03-01T02:29:50.930Z,55.80
2024-03-01T02:32:20.376Z,55.60
2024-03-01T02:34:49.424Z,55.70
2024-03-01T02:37:18.754Z,55.60
2024-03-01T02:39:47.422Z,55.70
2024-03-01T02:42:15.715Z,55.70
2024-03-01T02:44:44.800Z,55.70
2024-03-01T02:47:13.195Z,55.60
2024-03-01T02:49:41.404Z,55.60
2024-03-01T02:52:09.987Z,55.60
2024-03-01T02:54:38.531Z,55.70
2024-03-01T02:57:06.803Z,55.80
2024-03-01T02:59:34.804Z,55.60
2024-03-01T03:02:10.178Z,55.60
2024-03-01T03:04:40.328Z,55.60
2024-03-01T03:07:12.406Z,55.60
2024-03-01T03:09:42.827Z,55.80
2024-03-01T03:12:12.275Z,55.60
2024-03-01T03:14:41.732Z,55.80
2024-03-01T03:17:11.180Z,55.70
2024-03-01T03:19:40.301Z,55.70
2024-03-01T03:22:10.656Z,55.80
2024-03-01T03:24:40.450Z,55.70
2024-03-01T03:27:09.827Z,55.80
2024-03-01T03:29:39.398Z,55.90
2024-03-01T03:32:08.848Z,55.80
2024-03-01T03:34:37.783Z,56.00
2024-03-01T03:37:06.803Z,56.00
2024-03-01T03:39:35.647Z,56.00
2024-03-01T03:42:05.012Z,56.00
2024-03-01T03:44:33.890Z,55.90
2024-03-01T03:47:03.346Z,56.00
2024-03-01T03:49:32.555Z,55.90
2024-03-01T03:52:01.481Z,55.90
2024-03-01T03:54:30.784Z,56.00
2024-03-01T03:56:59.688Z,56.10
2024-03-01T03:59:29.013Z,55.90
2024-03-01T04:01:57.917Z,56.10
2024-03-01T04:04:27.287Z,56.10
2024-03-01T04:06:56.675Z,56.10
2024-03-01T04:09:25.553Z,56.10
2024-03-01T04:11:55.021Z,56.30
2024-03-01T04:14:24.435Z,56.50
2024-03-01T04:16:53.887Z,56.60
2024-03-01T04:19:23.314Z,56.50
2024-03-01T04:21:52.199Z,56.60
2024-03-01T04:24:21.549Z,56.50
2024-03-01T04:26:50.927Z,56.50
2024-03-01T04:29:19.935Z,56.50
2024-03-01T04:31:48.801Z,56.40
2024-03-01T04:34:17.776Z,56.40
2024-03-01T04:36:47.166Z,56.30
2024-03-01T04:39:16.395Z,56.40
2024-03-01T04:41:45.219Z,56.30
2024-03-01T04:44:14.063Z,56.30
2024-03-01T04:46:44.507Z,56.20
2024-03-01T04:49:13.798Z,56.20
2024-03-01T04:51:43.522Z,56.10
2024-03-01T04:54:14.914Z,56.20
2024-03-01T04:56:44.740Z,55.90
2024-03-01T04:59:16.506Z,56.10
2024-03-01T05:01:45.634Z,56.20
2024-03-01T05:04:15.021Z,56.10
2024-03-01T05:06:43.916Z,56.00
2024-03-01T05:09:12.865Z,56.00
2024-03-01T05:11:42.182Z,56.00
2024-03-01T05:14:11.008Z,56.00
2024-03-01T05:16:40.661Z,56.00
2024-03-01T05:19:09.841Z,55.90
2024-03-01T05:21:38.845Z,55.80
2024-03-01T05:24:07.693Z,55.80
2024-03-01T05:26:36.600Z,55.80
2024-03-01T05:29:06.015Z,55.80
2024-03-01T05:31:35.435Z,56.40
2024-03-01T05:34:04.906Z,55.80
2024-03-01T05:36:33.866Z,55.70
2024-03-01T05:39:02.784Z,55.70
2024-03-01T05:41:32.175Z,55.60
2024-03-01T05:44:01.413Z,55.60
2024-03-01T05:46:30.822Z,55.60
2024-03-01T05:49:00.262Z,55.50
2024-03-01T05:51:29.664Z,55.50
2024-03-01T05:53:59.018Z,55.50
2024-03-01T05:56:28.365Z,55.00
2024-03-01T05:58:57.198Z,55.40
2024-03-01T06:01:26.712Z,55.40
2024-03-01T06:03:55.781Z,55.40
2024-03-01T06:06:25.230Z,55.30
2024-03-01T06:08:54.115Z,55.30
2024-03-01T06:11:23.565Z,55.40
2024-03-01T06:13:52.750Z,55.40
2024-03-01T06:16:21.565Z,55.40
2024-03-01T06:18:50.546Z,55.30
2024-03-01T06:21:19.924Z,55.30
2024-03-01T06:23:48.731Z,55.40
2024-03-01T06:26:18.003Z,55.20
2024-03-01T06:28:47.390Z,55.30
2024-03-01T06:31:16.478Z,55.30
2024-03-01T06:33:45.831Z,55.30
2024-03-01T06:36:14.844Z,55.30
2024-03-01T06:38:43.599Z,55.30
2024-03-01T06:41:13.033Z,55.30
2024-03-01T06:43:42.496Z,55.20
2024-03-01T06:46:11.967Z,55.20
2024-03-01T06:48:41.309Z,55.20
2024-03-01T06:51:10.678Z,55.20
2024-03-01T06:53:39.656Z,55.10
2024-03-01T06:56:08.955Z,55.20
2024-03-01T06:58:38.417Z,55.10
2024-03-01T07:01:10.700Z,55.20
2024-03-01T07:03:40.291Z,55.20
2024-03-01T07:06:08.609Z,55.20
2024-03-01T07:08:37.995Z,55.20
2024-03-01T07:11:07.028Z,55.10
2024-03-01T07:13:35.960Z,55.10
2024-03-01T07:16:04.905Z,55.10
2024-03-01T07:18:34.217Z,55.10
2024-03-01T07:21:03.738Z,55.20
2024-03-01T07:23:33.203Z,55.00
2024-03-01T07:26:04.990Z,55.00
2024-03-01T07:28:36.051Z,55.10
2024-03-01T07:31:05.473Z,55.00
2024-03-01T07:33:34.306Z,54.90
2024-03-01T07:36:02.935Z,54.80
2024-03-01T07:38:31.287Z,54.70
2024-03-01T07:41:00.749Z,54.70
2024-03-01T07:43:30.237Z,54.60
2024-03-01T07:45:59.137Z,54.40
2024-03-01T07:48:28.513Z,54.30
2024-03-01T07:50:57.499Z,54.20
2024-03-01T07:53:26.866Z,54.10
2024-03-01T07:55:56.372Z,54.20
2024-03-01T07:58:25.296Z,54.10
2024-03-01T08:00:54.461Z,54.10
2024-03-01T08:03:23.668Z,54.00
2024-03-01T08:05:51.923Z,53.90
2024-03-01T08:08:21.197Z,53.80
2024-03-01T08:10:50.661Z,53.80
2024-03-01T08:13:20.109Z,53.60
2024-03-01T08:15:49.867Z,53.60
2024-03-01T08:18:19.683Z,53.40
2024-03-01T08:20:48.762Z,53.30
2024-03-01T08:23:18.176Z,53.40
2024-03-01T08:25:47.358Z,53.40
2024-03-01T08:28:16.764Z,53.20
2024-03-01T08:30:45.895Z,53.20
2024-03-01T08:33:14.304Z,53.10
2024-03-01T08:35:43.210Z,52.80
2024-03-01T08:38:12.469Z,53.60
2024-03-01T08:40:41.358Z,52.80
2024-03-01T08:43:10.794Z,53.00
2024-03-01T08:45:40.209Z,52.80
2024-03-01T08:48:09.235Z,52.60
2024-03-01T08:50:38.604Z,52.40
2024-03-01T08:53:07.657Z,52.60
2024-03-01T08:55:36.112Z,52.60
2024-03-01T08:58:05.170Z,52.50
2024-03-01T09:00:34.247Z,52.60
2024-03-01T09:03:03.120Z,52.50
2024-03-01T09:05:32.033Z,52.30
2024-03-01T09:08:01.029Z,52.30
2024-03-01T09:10:30.572Z,51.60
2024-03-01T09:12:59.965Z,50.70
2024-03-01T09:15:28.794Z,50.10
2024-03-01T09:17:58.110Z,49.10
2024-03-01T09:20:27.581Z,48.40
2024-03-01T09:22:56.976Z,47.90
2024-03-01T09:25:26.301Z,47.50
2024-03-01T09:27:55.243Z,46.50
2024-03-01T09:30:24.215Z,45.80
2024-03-01T09:32:53.604Z,45.10
2024-03-01T09:35:23.133Z,44.60
2024-03-01T09:37:52.593Z,44.20
2024-03-01T09:40:22.074Z,43.50
2024-03-01T09:42:51.627Z,42.70
2024-03-01T09:45:20.733Z,43.90
2024-03-01T09:47:50.278Z,43.40
2024-03-01T09:50:19.554Z,42.40
2024-03-01T09:52:49.026Z,41.30
2024-03-01T09:55:18.621Z,41.40
2024-03-01T09:57:47.875Z,40.90
2024-03-01T10:00:17.280Z,39.90
2024-03-01T10:02:46.594Z,39.70
2024-03-01T10:05:15.666Z,38.90
2024-03-01T10:07:44.036Z,38.50
2024-03-01T10:10:13.614Z,38.40
2024-03-01T10:12:42.670Z,37.50
2024-03-01T10:15:11.670Z,37.30
2024-03-01T10:17:41.165Z,36.70
2024-03-01T10:20:10.554Z,36.60
2024-03-01T10:22:40.148Z,36.40
2024-03-01T10:25:09.673Z,35.90
2024-03-01T10:27:38.396Z,35.20
2024-03-01T10:30:07.130Z,35.30
2024-03-01T10:32:36.701Z,34.70
2024-03-01T10:35:06.199Z,34.30
2024-03-01T10:37:35.734Z,34.00
2024-03-01T10:40:05.213Z,34.20
2024-03-01T10:42:34.132Z,35.30
2024-03-01T10:45:03.679Z,34.00
2024-03-01T10:47:33.253Z,35.50
2024-03-01T10:50:02.693Z,35.50
2024-03-01T10:52:31.740Z,35.00
2024-03-01T10:55:01.330Z,35.90
2024-03-01T10:57:30.714Z,35.30
2024-03-01T11:00:00.003Z,36.80
2024-03-01T11:02:29.377Z,37.00
2024-03-01T11:04:58.395Z,36.20
2024-03-01T11:07:27.829Z,35.60
2024-03-01T11:09:57.302Z,35.30
2024-03-01T11:12:26.814Z,35.10
2024-03-01T11:14:57.941Z,34.50
2024-03-01T11:17:26.954Z,34.80
2024-03-01T11:19:55.368Z,34.40
2024-03-01T11:22:23.620Z,34.70
2024-03-01T11:24:52.423Z,32.70
2024-03-01T11:27:21.368Z,34.10
2024-03-01T11:29:50.236Z,33.80
2024-03-01T11:32:20.614Z,33.50
2024-03-01T11:34:50.575Z,32.40
2024-03-01T11:37:19.242Z,32.40
2024-03-01T11:39:49.111Z,32.70
2024-03-01T11:42:23.750Z,32.50
2024-03-01T11:44:57.204Z,32.10
2024-03-01T11:47:26.487Z,31.50
2024-03-01T11:49:55.765Z,31.90
2024-03-01T11:52:25.217Z,30.70
2024-03-01T11:54:54.634Z,31.50
2024-03-01T11:57:23.596Z,31.40
2024-03-01T11:59:52.452Z,31.40
2024-03-01T12:02:21.855Z,31.40
2024-03-01T12:04:50.948Z,31.10
2024-03-01T12:07:20.419Z,31.30
2024-03-01T12:09:49.057Z,31.00
2024-03-01T12:12:17.299Z,30.80
2024-03-01T12:14:46.160Z,30.70
2024-03-01T12:17:15.220Z,30.40
2024-03-01T12:19:43.760Z,30.60
2024-03-01T12:22:13.314Z,30.40
2024-03-01T12:24:42.438Z,30.30
2024-03-01T12:27:11.884Z,30.80
2024-03-01T12:29:41.299Z,31.00
2024-03-01T12:32:09.972Z,30.90
2024-03-01T12:34:38.773Z,30.70
2024-03-01T12:37:08.168Z,30.80
2024-03-01T12:39:37.414Z,31.30
2024-03-01T12:42:06.226Z,31.40
2024-03-01T12:44:35.528Z,30.60
2024-03-01T12:47:04.513Z,31.70
2024-03-01T12:49:33.965Z,31.70
2024-03-01T12:52:02.814Z,32.80
2024-03-01T12:54:31.632Z,33.00
2024-03-01T12:57:01.114Z,33.00
2024-03-01T12:59:30.033Z,33.60
2024-03-01T13:01:59.674Z,33.50
2024-03-01T13:04:28.607Z,34.30
2024-03-01T13:06:57.906Z,34.60
2024-03-01T13:09:26.699Z,34.60
2024-03-01T13:11:56.134Z,35.20
2024-03-01T13:14:24.749Z,35.50
2024-03-01T13:16:53.521Z,35.50
2024-03-01T13:19:23.024Z,36.00
2024-03-01T13:21:52.498Z,36.10
2024-03-01T13:24:21.478Z,36.20
2024-03-01T13:26:50.873Z,36.90
2024-03-01T13:29:20.331Z,36.90
2024-03-01T13:31:49.749Z,37.40
2024-03-01T13:34:19.146Z,37.60
2024-03-01T13:36:48.499Z,37.80
2024-03-01T13:39:17.381Z,38.50
2024-03-01T13:41:46.700Z,38.70
2024-03-01T13:44:15.577Z,39.00
2024-03-01T13:46:44.342Z,38.90
2024-03-01T13:49:13.269Z,39.00
2024-03-01T13:51:42.694Z,39.70
2024-03-01T13:54:11.937Z,39.50
2024-03-01T13:56:41.275Z,39.40
2024-03-01T13:59:10.663Z,39.90
2024-03-01T14:01:40.154Z,39.90
2024-03-01T14:04:09.643Z,40.30
2024-03-01T14:06:39.027Z,40.30
2024-03-01T14:09:08.414Z,40.50
2024-03-01T14:11:37.388Z,40.50
2024-03-01T14:14:06.750Z,40.50
2024-03-01T14:16:36.161Z,40.90
2024-03-01T14:19:05.493Z,40.90
2024-03-01T14:21:34.883Z,41.00
2024-03-01T14:24:04.179Z,41.50
2024-03-01T14:26:32.788Z,41.20
2024-03-01T14:29:01.046Z,41.50
2024-03-01T14:31:30.483Z,41.30
2024-03-01T14:33:59.455Z,41.70
2024-03-01T14:36:28.832Z,41.60
2024-03-01T14:38:58.257Z,42.00
2024-03-01T14:41:27.118Z,42.20
2024-03-01T14:43:55.997Z,42.30
2024-03-01T14:46:25.409Z,42.30
2024-03-01T14:48:54.861Z,42.20
2024-03-01T14:51:24.251Z,42.40
2024-03-01T14:53:53.135Z,42.60
2024-03-01T14:56:22.514Z,42.60
2024-03-01T14:58:51.880Z,42.50
2024-03-01T15:01:21.132Z,42.50
2024-03-01T15:03:50.246Z,43.00
2024-03-01T15:06:19.011Z,42.70
2024-03-01T15:08:47.988Z,42.80
2024-03-01T15:11:17.067Z,43.00
2024-03-01T15:13:46.062Z,43.50
2024-03-01T15:16:15.529Z,43.40
2024-03-01T15:18:44.421Z,43.60
2024-03-01T15:21:13.809Z,43.40
2024-03-01T15:23:43.195Z,43.40
2024-03-01T15:26:12.575Z,43.50
2024-03-01T15:28:42.845Z,43.60
2024-03-01T15:31:13.561Z,43.60
2024-03-01T15:33:42.876Z,43.50
2024-03-01T15:36:12.285Z,43.70
2024-03-01T15:38:41.293Z,43.70
2024-03-01T15:41:10.381Z,43.80
2024-03-01T15:43:39.378Z,43.90
2024-03-01T15:46:08.943Z,43.60
2024-03-01T15:48:37.922Z,43.80
2024-03-01T15:51:06.828Z,44.00
2024-03-01T15:53:36.170Z,44.10
2024-03-01T15:56:05.111Z,44.00
2024-03-01T15:58:34.537Z,44.30
2024-03-01T16:01:04.088Z,44.30
2024-03-01T16:03:33.524Z,44.30
2024-03-01T16:06:02.572Z,44.30
2024-03-01T16:08:31.310Z,44.40
2024-03-01T16:11:00.386Z,44.40
2024-03-01T16:13:29.941Z,44.40
2024-03-01T16:15:59.596Z,44.50
2024-03-01T16:18:28.908Z,44.40
2024-03-01T16:20:57.749Z,44.50
2024-03-01T16:23:27.541Z,44.60
2024-03-01T16:25:56.937Z,44.70
2024-03-01T16:28:26.417Z,45.10
2024-03-01T16:30:55.859Z,44.90
2024-03-01T16:33:25.112Z,45.00
2024-03-01T16:35:54.452Z,44.90
2024-03-01T16:38:23.281Z,44.90
2024-03-01T16:40:52.948Z,44.80
2024-03-01T16:43:22.597Z,44.90
2024-03-01T16:45:51.503Z,45.10
2024-03-01T16:48:20.456Z,45.20
2024-03-01T16:50:49.404Z,45.30
2024-03-01T16:53:18.805Z,45.30
2024-03-01T16:55:48.204Z,45.30
2024-03-01T16:58:17.702Z,45.30
2024-03-01T17:00:47.236Z,45.60
2024-03-01T17:03:16.766Z,45.50
2024-03-01T17:05:45.753Z,45.70
2024-03-01T17:08:14.770Z,45.60
2024-03-01T17:10:44.187Z,45.70
2024-03-01T17:13:13.739Z,45.70
2024-03-01T17:15:42.671Z,45.80
2024-03-01T17:18:12.618Z,45.90
2024-03-01T17:20:43.417Z,46.00
2024-03-01T17:23:12.851Z,46.10
2024-03-01T17:25:42.514Z,46.00
2024-03-01T17:28:12.011Z,46.10
2024-03-01T17:30:41.282Z,46.10
2024-03-01T17:33:10.063Z,46.10
2024-03-01T17:35:39.331Z,46.10
2024-03-01T17:38:08.524Z,46.30
2024-03-01T17:40:36.843Z,46.40
2024-03-01T17:43:06.197Z,46.40
2024-03-01T17:45:35.645Z,46.60
2024-03-01T17:48:04.843Z,46.60
2024-03-01T17:50:33.538Z,46.60
2024-03-01T17:53:02.357Z,46.60
2024-03-01T17:55:31.809Z,46.60
2024-03-01T17:58:01.347Z,46.60
2024-03-01T18:00:30.659Z,46.80
2024-03-01T18:02:59.581Z,46.90
2024-03-01T18:05:27.739Z,46.90
2024-03-01T18:07:57.204Z,46.80
2024-03-01T18:10:27.484Z,46.90
2024-03-01T18:12:56.592Z,46.90
2024-03-01T18:15:26.037Z,46.80
2024-03-01T18:17:55.009Z,47.00
2024-03-01T18:20:23.839Z,47.00
2024-03-01T18:22:53.359Z,47.00
2024-03-01T18:25:22.088Z,47.00
2024-03-01T18:27:50.759Z,47.00
2024-03-01T18:30:20.153Z,47.10
2024-03-01T18:32:49.677Z,47.30
2024-03-01T18:35:19.143Z,47.10
2024-03-01T18:37:48.515Z,47.10
2024-03-01T18:40:17.500Z,47.20
2024-03-01T18:42:46.901Z,47.20
2024-03-01T18:45:16.339Z,47.20
2024-03-01T18:47:45.218Z,47.20
2024-03-01T18:50:14.659Z,47.30
2024-03-01T18:52:44.147Z,47.30
2024-03-01T18:55:12.795Z,47.40
2024-03-01T18:57:41.593Z,47.40
2024-03-01T19:00:10.650Z,47.50
2024-03-01T19:02:40.281Z,48.10
2024-03-01T19:05:09.309Z,47.50
2024-03-01T19:07:38.624Z,47.60
2024-03-01T19:10:07.993Z,47.60
2024-03-01T19:12:37.048Z,47.60
2024-03-01T19:15:06.371Z,47.70
2024-03-01T19:17:35.267Z,47.60
2024-03-01T19:20:04.785Z,47.80
2024-03-01T19:22:34.342Z,47.50
2024-03-01T19:25:03.975Z,47.60
2024-03-01T19:27:33.603Z,47.60
2024-03-01T19:30:02.537Z,47.70
2024-03-01T19:32:31.438Z,47.70
2024-03-01T19:35:00.724Z,47.70
2024-03-01T19:37:29.701Z,48.00
2024-03-01T19:39:59.027Z,47.80
2024-03-01T19:42:28.446Z,47.60
2024-03-01T19:44:57.871Z,47.90
2024-03-01T19:47:27.327Z,47.90
2024-03-01T19:49:56.798Z,47.80
2024-03-01T19:52:26.297Z,48.00
2024-03-01T19:54:54.970Z,47.80
2024-03-01T19:57:23.583Z,48.00
2024-03-01T19:59:52.941Z,48.00
2024-03-01T20:02:21.778Z,48.00
2024-03-01T20:04:51.199Z,48.00
2024-03-01T20:07:20.156Z,47.90
2024-03-01T20:09:49.434Z,48.00
2024-03-01T20:12:18.245Z,48.00
2024-03-01T20:14:47.620Z,48.00
2024-03-01T20:17:16.174Z,48.00
2024-03-01T20:19:45.225Z,48.00
2024-03-01T20:22:14.794Z,48.10
2024-03-01T20:24:43.684Z,48.10
2024-03-01T20:27:12.528Z,48.00
2024-03-01T20:29:41.973Z,48.10
2024-03-01T20:32:11.293Z,48.20
2024-03-01T20:34:40.327Z,48.70
2024-03-01T20:37:09.280Z,48.10
2024-03-01T20:39:38.068Z,48.10
2024-03-01T20:42:06.678Z,48.10
2024-03-01T20:44:34.927Z,48.10
2024-03-01T20:47:03.777Z,48.10
2024-03-01T20:49:32.703Z,48.20
2024-03-01T20:52:01.348Z,48.20
2024-03-01T20:54:31.507Z,48.30
2024-03-01T20:57:02.938Z,48.40
2024-03-01T20:59:33.234Z,48.10
2024-03-01T21:02:02.618Z,48.30
2024-03-01T21:04:31.564Z,48.10
2024-03-01T21:07:00.798Z,48.30
2024-03-01T21:09:30.203Z,48.20
2024-03-01T21:11:59.166Z,48.20
2024-03-01T21:14:28.684Z,48.20
2024-03-01T21:16:58.083Z,48.80
2024-03-01T21:19:26.948Z,48.30
2024-03-01T21:24:44.313Z,48.20
2024-03-01T21:27:13.500Z,48.20
2024-03-01T21:29:42.359Z,48.20
2024-03-01T21:32:19.217Z,48.30
2024-03-01T21:34:51.240Z,48.20
2024-03-01T21:37:20.155Z,48.30
2024-03-01T21:39:49.439Z,48.30
2024-03-01T21:42:18.064Z,48.20
2024-03-01T21:44:46.455Z,48.30
2024-03-01T21:47:15.515Z,48.30
2024-03-01T21:49:43.679Z,48.30
2024-03-01T21:52:12.596Z,48.20
2024-03-01T21:54:42.076Z,48.30
2024-03-01T21:57:11.582Z,48.30
2024-03-01T21:59:41.135Z,48.30
2024-03-01T22:02:09.990Z,48.30
2024-03-01T22:04:38.797Z,48.20
2024-03-01T22:07:07.829Z,48.20
2024-03-01T22:09:37.130Z,48.20
2024-03-01T22:12:06.441Z,48.30
2024-03-01T22:14:35.776Z,48.30
2024-03-01T22:17:05.140Z,48.30
2024-03-01T22:19:34.176Z,48.20
2024-03-01T22:22:02.392Z,48.30
2024-03-01T22:24:31.005Z,48.40
2024-03-01T22:26:59.206Z,48.20
2024-03-01T22:29:28.001Z,48.30
2024-03-01T22:31:56.813Z,48.30
2024-03-01T22:34:26.203Z,48.40
2024-03-01T22:36:55.282Z,48.30
2024-03-01T22:39:24.297Z,48.40
2024-03-01T22:41:53.153Z,48.30
2024-03-01T22:44:22.411Z,48.40
2024-03-01T22:46:51.320Z,48.40
2024-03-01T22:49:21.597Z,48.40
2024-03-01T22:51:52.868Z,48.50
2024-03-01T22:54:23.303Z,48.50
2024-03-01T22:56:52.767Z,49.00
2024-03-01T22:59:21.601Z,48.50
2024-03-01T23:01:50.990Z,48.50
2024-03-01T23:04:19.618Z,48.60
2024-03-01T23:06:48.367Z,48.50
2024-03-01T23:09:17.460Z,48.50
2024-03-01T23:11:47.022Z,48.50
2024-03-01T23:14:20.331Z,48.50
2024-03-01T23:16:49.342Z,48.50
2024-03-01T23:19:18.288Z,48.60
2024-03-01T23:21:47.222Z,48.50
2024-03-01T23:24:16.645Z,48.60
2024-03-01T23:26:46.071Z,48.50
2024-03-01T23:29:15.660Z,48.50
2024-03-01T23:31:44.571Z,48.60
2024-03-01T23:34:13.899Z,48.60
2024-03-01T23:36:42.969Z,48.60
2024-03-01T23:39:13.350Z,48.60
2024-03-01T23:41:42.808Z,48.60
2024-03-01T23:44:11.792Z,48.60
2024-03-01T23:46:41.097Z,48.60
2024-03-01T23:49:10.530Z,48.70
2024-03-01T23:51:39.925Z,48.60
2024-03-01T23:54:09.304Z,48.70
2024-03-01T23:56:38.185Z,48.70
2024-03-01T23:59:09.085Z,48.80
